createdAt,value
2019-04-11T00:00:44.445Z,51.81
2019-04-11T00:01:47.832Z,51.11
2019-04-11T00:02:44.845Z,51.09
2019-04-11T00:03:44.342Z,50.90
2019-04-11T00:04:44.337Z,50.80
2019-04-11T00:05:45.244Z,50.80
2019-04-11T00:06:44.253Z,51.63
2019-04-11T00:07:44.654Z,51.09
2019-04-11T00:08:44.176Z,51.40
2019-04-11T00:09:44.947Z,51.73
2019-04-11T00:10:45.024Z,52.04
2019-04-11T00:11:44.237Z,51.73
2019-04-11T00:12:44.041Z,51.42
2019-04-11T00:13:44.238Z,51.40
2019-04-11T00:14:44.188Z,51.84
2019-04-11T00:15:44.495Z,51.53
2019-04-11T00:16:43.906Z,51.81
2019-04-11T00:17:43.924Z,51.40
2019-04-11T00:18:44.936Z,51.73
2019-04-11T00:19:43.833Z,51.73
2019-04-11T00:20:44.398Z,51.32
2019-04-11T00:21:44.665Z,51.32
2019-04-11T00:22:43.768Z,52.25
2019-04-11T00:23:43.681Z,51.53
2019-04-11T00:24:43.666Z,51.84
2019-04-11T00:25:44.097Z,52.25
2019-04-11T00:26:44.427Z,51.94
2019-04-11T00:27:45.441Z,52.15
2019-04-11T00:28:43.681Z,52.36
2019-04-11T00:29:43.498Z,52.04
2019-04-11T00:30:44.117Z,52.98
2019-04-11T00:31:43.404Z,52.15
2019-04-11T00:32:43.421Z,52.77
2019-04-11T00:33:44.484Z,52.98
2019-04-11T00:34:43.362Z,52.67
2019-04-11T00:35:43.949Z,52.87
2019-04-11T00:36:44.188Z,52.48
2019-04-11T00:37:43.448Z,52.77
2019-04-11T00:38:43.180Z,52.28
2019-04-11T00:39:43.748Z,53.00
2019-04-11T00:40:43.699Z,53.00
2019-04-11T00:41:43.070Z,52.90
2019-04-11T00:42:43.060Z,53.00
2019-04-11T00:43:44.192Z,53.52
2019-04-11T00:44:43.191Z,53.52
2019-04-11T00:45:43.570Z,53.00
2019-04-11T00:46:42.906Z,53.54
2019-04-11T00:47:42.889Z,54.14
2019-04-11T00:48:43.909Z,54.14
2019-04-11T00:49:42.977Z,54.47
2019-04-11T00:50:43.340Z,54.35
2019-04-11T00:51:42.735Z,54.47
2019-04-11T00:52:42.710Z,54.47
2019-04-11T00:53:42.672Z,54.37
2019-04-11T00:54:42.781Z,54.37
2019-04-11T00:55:43.704Z,54.68
2019-04-11T00:56:42.606Z,54.79
2019-04-11T00:57:43.231Z,54.79
2019-04-11T00:58:43.540Z,55.10
2019-04-11T00:59:42.694Z,55.30
2019-04-11T01:00:42.999Z,55.20
2019-04-11T01:01:43.010Z,55.41
2019-04-11T01:02:43.352Z,55.41
2019-04-11T01:03:43.252Z,56.05
2019-04-11T01:04:43.219Z,55.85
2019-04-11T01:05:42.608Z,55.74
2019-04-11T01:06:42.545Z,56.47
2019-04-11T01:07:42.912Z,56.68
2019-04-11T01:08:42.172Z,57.09
2019-04-11T01:09:42.334Z,57.20
2019-04-11T01:10:42.127Z,56.99
2019-04-11T01:11:42.073Z,57.60
2019-04-11T01:12:42.938Z,57.71
2019-04-11T01:13:50.369Z,57.50
2019-04-11T01:14:42.720Z,57.95
2019-04-11T01:15:42.816Z,57.81
2019-04-11T01:16:42.953Z,57.43
2019-04-11T01:17:41.871Z,57.30
2019-04-11T01:18:42.393Z,58.47
2019-04-11T01:19:42.705Z,58.88
2019-04-11T01:20:41.955Z,58.78
2019-04-11T01:21:42.389Z,59.09
2019-04-11T01:22:42.433Z,59.50
2019-04-11T01:23:42.857Z,59.63
2019-04-11T01:24:42.019Z,59.63
2019-04-11T01:25:41.628Z,60.36
2019-04-11T01:26:41.580Z,60.67
2019-04-11T01:27:42.475Z,60.46
2019-04-11T01:28:41.491Z,60.77
2019-04-11T01:29:41.905Z,60.88
2019-04-11T01:30:41.458Z,60.77
2019-04-11T01:31:42.749Z,60.57
2019-04-11T01:32:42.308Z,60.36
2019-04-11T01:33:42.186Z,60.57
2019-04-11T01:34:42.504Z,61.19
2019-04-11T01:35:41.691Z,61.22
2019-04-11T01:36:41.270Z,61.22
2019-04-11T01:37:41.931Z,61.63
2019-04-11T01:38:41.155Z,61.74
2019-04-11T01:39:41.293Z,61.84
2019-04-11T01:40:42.206Z,61.84
2019-04-11T01:41:41.058Z,62.36
2019-04-11T01:42:41.799Z,61.94
2019-04-11T01:43:52.114Z,62.15
2019-04-11T01:44:41.093Z,62.26
2019-04-11T01:45:41.349Z,62.26
2019-04-11T01:46:40.882Z,62.05
2019-04-11T01:47:40.884Z,62.57
2019-04-11T01:48:43.865Z,62.77
2019-04-11T01:49:40.783Z,62.46
2019-04-11T01:50:41.194Z,62.77
2019-04-11T01:51:40.753Z,62.80
2019-04-11T01:52:40.680Z,62.90
2019-04-11T01:53:41.873Z,63.01
2019-04-11T01:54:45.978Z,62.80
2019-04-11T01:55:40.849Z,62.59
2019-04-11T01:56:41.170Z,63.11
2019-04-11T01:57:40.536Z,63.01
2019-04-11T01:58:40.663Z,63.32
2019-04-11T01:59:41.667Z,63.53
2019-04-11T02:00:40.405Z,63.42
2019-04-11T02:01:41.096Z,64.04
2019-04-11T02:02:40.344Z,64.46
2019-04-11T02:03:41.366Z,64.56
2019-04-11T02:04:40.489Z,64.46
2019-04-11T02:05:41.158Z,64.36
2019-04-11T02:06:40.382Z,64.04
2019-04-11T02:07:40.169Z,64.04
2019-04-11T02:08:40.132Z,63.94
2019-04-11T02:09:40.167Z,63.94
2019-04-11T02:10:41.124Z,64.04
2019-04-11T02:11:40.053Z,64.36
2019-04-11T02:12:40.003Z,63.53
2019-04-11T02:13:39.964Z,64.87
2019-04-11T02:14:39.932Z,64.36
2019-04-11T02:15:40.815Z,64.25
2019-04-11T02:16:41.063Z,64.25
2019-04-11T02:17:39.826Z,64.15
2019-04-11T02:18:39.787Z,64.46
2019-04-11T02:19:40.527Z,64.56
2019-04-11T02:20:40.739Z,64.46
2019-04-11T02:21:40.041Z,65.01
2019-04-11T02:22:40.412Z,65.11
2019-04-11T02:23:39.615Z,64.80
2019-04-11T02:24:39.711Z,65.22
2019-04-11T02:25:40.559Z,65.11
2019-04-11T02:26:39.544Z,65.32
2019-04-11T02:27:40.139Z,65.11
2019-04-11T02:28:39.446Z,65.39
2019-04-11T02:29:39.410Z,65.08
2019-04-11T02:30:41.206Z,65.19
2019-04-11T02:31:39.372Z,65.11
2019-04-11T02:32:40.455Z,65.84
2019-04-11T02:33:41.216Z,66.15
2019-04-11T02:34:39.757Z,66.36
2019-04-11T02:35:39.924Z,66.57
2019-04-11T02:36:40.551Z,66.25
2019-04-11T02:37:39.941Z,66.57
2019-04-11T02:38:41.035Z,66.67
2019-04-11T02:39:40.799Z,66.78
2019-04-11T02:40:40.897Z,67.30
2019-04-11T02:41:39.800Z,67.50
2019-04-11T02:42:38.977Z,67.54
2019-04-11T02:43:41.814Z,67.33
2019-04-11T02:44:56.587Z,67.09
2019-04-11T02:45:51.746Z,67.09
2019-04-11T02:46:55.788Z,67.43
2019-04-11T02:47:41.569Z,67.95
2019-04-11T02:48:40.477Z,67.74
2019-04-11T02:49:39.229Z,67.85
2019-04-11T02:50:40.652Z,68.26
2019-04-11T02:51:39.186Z,67.54
2019-04-11T02:52:40.238Z,67.64
2019-04-11T02:53:40.923Z,68.05
2019-04-11T02:54:38.915Z,67.85
2019-04-11T02:55:38.589Z,68.47
2019-04-11T02:56:40.469Z,68.26
2019-04-11T02:57:39.192Z,68.05
2019-04-11T02:58:39.150Z,68.37
2019-04-11T02:59:38.976Z,68.40
2019-04-11T03:00:39.997Z,68.26
2019-04-11T03:01:39.738Z,68.57
2019-04-11T03:02:39.402Z,68.78
2019-04-11T03:03:39.572Z,68.78
2019-04-11T03:04:39.343Z,68.60
2019-04-11T03:05:39.373Z,68.78
2019-04-11T03:06:39.680Z,68.57
2019-04-11T03:07:38.177Z,68.91
2019-04-11T03:08:38.800Z,69.23
2019-04-11T03:09:39.329Z,69.33
2019-04-11T03:10:38.005Z,69.09
2019-04-11T03:11:38.677Z,69.12
2019-04-11T03:12:38.834Z,68.91
2019-04-11T03:13:38.491Z,69.54
2019-04-11T03:14:54.543Z,69.33
2019-04-11T03:15:56.166Z,69.64
2019-04-11T03:16:49.192Z,69.54
2019-04-11T03:17:43.073Z,69.54
2019-04-11T03:18:54.789Z,69.74
2019-04-11T03:19:54.030Z,69.64
2019-04-11T03:20:47.266Z,69.61
2019-04-11T03:21:41.187Z,69.51
2019-04-11T03:22:38.409Z,69.74
2019-04-11T03:23:38.113Z,69.96
2019-04-11T03:24:38.587Z,70.17
2019-04-11T03:25:38.530Z,70.06
2019-04-11T03:26:37.833Z,69.96
2019-04-11T03:27:37.812Z,69.85
2019-04-11T03:28:38.821Z,69.74
2019-04-11T03:29:37.870Z,69.96
2019-04-11T03:30:57.318Z,70.06
2019-04-11T03:33:36.337Z,70.17
2019-04-11T03:35:31.596Z,70.27
2019-04-11T03:37:17.283Z,70.06
2019-04-11T03:37:58.714Z,70.06
2019-04-11T03:39:56.993Z,70.06
2019-04-11T03:40:57.012Z,70.17
2019-04-11T03:41:51.907Z,70.17
2019-04-11T03:42:50.272Z,70.27
2019-04-11T03:43:48.536Z,70.37
2019-04-11T03:44:43.789Z,70.37
2019-04-11T03:46:01.444Z,70.58
2019-04-11T03:46:49.219Z,70.27
2019-04-11T03:47:48.370Z,70.37
2019-04-11T03:48:47.821Z,70.37
2019-04-11T03:49:44.909Z,70.58
2019-04-11T03:50:38.698Z,70.58
2019-04-11T03:51:38.666Z,70.48
2019-04-11T03:52:36.684Z,70.48
2019-04-11T03:53:37.352Z,70.58
2019-04-11T03:54:38.259Z,71.62
2019-04-11T03:55:36.896Z,70.86
2019-04-11T03:56:37.206Z,71.00
2019-04-11T03:57:37.345Z,70.44
2019-04-11T03:58:37.149Z,71.28
2019-04-11T03:59:38.404Z,70.23
2019-04-11T04:00:39.459Z,70.54
2019-04-11T04:01:37.983Z,69.92
2019-04-11T04:02:37.259Z,69.85
2019-04-11T04:03:36.738Z,69.92
2019-04-11T04:04:37.087Z,69.82
2019-04-11T04:05:36.831Z,70.23
2019-04-11T04:06:37.409Z,70.03
2019-04-11T04:07:36.190Z,69.92
2019-04-11T04:08:36.281Z,69.61
2019-04-11T04:09:37.237Z,69.51
2019-04-11T04:10:36.219Z,69.71
2019-04-11T04:11:35.975Z,69.40
2019-04-11T04:12:37.403Z,69.61
2019-04-11T04:13:36.861Z,69.82
2019-04-11T04:14:37.210Z,69.09
2019-04-11T04:15:44.216Z,69.23
2019-04-11T04:16:41.419Z,69.51
2019-04-11T04:17:35.952Z,69.40
2019-04-11T04:18:36.243Z,69.23
2019-04-11T04:19:37.470Z,69.51
2019-04-11T04:20:36.936Z,69.71
2019-04-11T04:21:35.540Z,69.43
2019-04-11T04:22:35.695Z,69.30
2019-04-11T04:23:36.452Z,69.23
2019-04-11T04:24:39.814Z,69.82
2019-04-11T04:25:36.761Z,69.40
2019-04-11T04:26:35.601Z,69.51
2019-04-11T04:27:35.437Z,69.30
2019-04-11T04:28:35.774Z,69.30
2019-04-11T04:29:37.772Z,69.51
2019-04-11T04:30:36.008Z,69.40
2019-04-11T04:31:35.198Z,69.30
2019-04-11T04:32:36.264Z,69.40
2019-04-11T04:33:36.186Z,69.74
2019-04-11T04:34:36.133Z,68.99
2019-04-11T04:35:36.355Z,69.12
2019-04-11T04:36:35.030Z,69.30
2019-04-11T04:37:34.990Z,69.09
2019-04-11T04:38:35.539Z,69.09
2019-04-11T04:39:36.892Z,69.02
2019-04-11T04:40:50.023Z,68.60
2019-04-11T04:41:41.424Z,68.60
2019-04-11T04:42:40.327Z,68.05
2019-04-11T04:43:36.334Z,68.26
2019-04-11T04:44:34.798Z,68.37
2019-04-11T04:45:54.968Z,68.05
2019-04-11T04:46:54.820Z,68.16
2019-04-11T04:47:44.230Z,68.05
2019-04-11T04:48:34.759Z,68.16
2019-04-11T04:49:36.403Z,68.16
2019-04-11T04:50:36.541Z,67.74
2019-04-11T04:51:35.195Z,67.64
2019-04-11T04:52:36.097Z,68.16
2019-04-11T04:53:35.546Z,68.16
2019-04-11T04:54:35.084Z,67.74
2019-04-11T04:55:34.867Z,67.74
2019-04-11T04:56:35.036Z,67.43
2019-04-11T04:57:35.872Z,67.43
2019-04-11T04:58:34.416Z,67.09
2019-04-11T04:59:37.536Z,67.09
2019-04-11T05:00:34.830Z,67.50
2019-04-11T05:01:35.094Z,67.40
2019-04-11T05:02:35.464Z,67.19
2019-04-11T05:03:34.598Z,67.43
2019-04-11T05:04:35.903Z,67.12
2019-04-11T05:05:34.092Z,67.02
2019-04-11T05:06:34.589Z,67.02
2019-04-11T05:07:37.891Z,67.09
2019-04-11T05:08:34.718Z,67.40
2019-04-11T05:09:34.006Z,67.54
2019-04-11T05:10:33.900Z,67.09
2019-04-11T05:11:34.074Z,67.37
2019-04-11T05:12:34.565Z,66.54
2019-04-11T05:13:34.464Z,66.44
2019-04-11T05:14:35.023Z,66.09
2019-04-11T05:15:34.663Z,65.58
2019-04-11T05:16:33.650Z,65.16
2019-04-11T05:17:34.549Z,65.16
2019-04-11T05:18:34.246Z,65.06
2019-04-11T05:19:34.094Z,65.03
2019-04-11T05:20:34.267Z,65.13
2019-04-11T05:21:33.484Z,64.92
2019-04-11T05:22:33.452Z,65.03
2019-04-11T05:23:33.872Z,64.82
2019-04-11T05:24:33.403Z,65.34
2019-04-11T05:25:33.343Z,65.34
2019-04-11T05:26:33.385Z,65.34
2019-04-11T05:27:33.548Z,65.23
2019-04-11T05:28:33.253Z,64.89
2019-04-11T05:29:33.553Z,64.92
2019-04-11T05:30:33.459Z,65.13
2019-04-11T05:31:33.142Z,65.03
2019-04-11T05:32:33.463Z,65.10
2019-04-11T05:33:33.122Z,65.00
2019-04-11T05:34:33.044Z,64.58
2019-04-11T05:35:34.384Z,64.03
2019-04-11T05:36:32.989Z,63.20
2019-04-11T05:37:33.323Z,63.54
2019-04-11T05:38:32.906Z,63.85
2019-04-11T05:39:33.886Z,64.14
2019-04-11T05:40:32.867Z,64.06
2019-04-11T05:41:33.518Z,64.14
2019-04-11T05:42:33.410Z,64.03
2019-04-11T05:43:37.296Z,63.93
2019-04-11T05:44:32.724Z,63.62
2019-04-11T05:45:33.733Z,63.51
2019-04-11T05:46:42.159Z,63.82
2019-04-11T05:47:32.605Z,63.96
2019-04-11T05:48:32.571Z,63.20
2019-04-11T05:49:36.557Z,64.24
2019-04-11T05:50:32.532Z,63.93
2019-04-11T05:51:38.931Z,64.14
2019-04-11T05:52:34.157Z,63.96
2019-04-11T05:53:33.536Z,64.48
2019-04-11T05:54:33.241Z,64.24
2019-04-11T05:55:32.374Z,63.93
2019-04-11T05:56:33.422Z,64.34
2019-04-11T05:57:35.827Z,63.07
2019-04-11T05:58:32.509Z,63.28
2019-04-11T05:59:32.738Z,63.17
2019-04-11T06:00:32.594Z,62.87
2019-04-11T06:01:32.140Z,62.68
2019-04-11T06:02:33.204Z,63.41
2019-04-11T06:03:32.375Z,63.41
2019-04-11T06:04:32.371Z,63.31
2019-04-11T06:05:33.295Z,64.03
2019-04-11T06:06:36.130Z,63.65
2019-04-11T06:07:32.747Z,63.96
2019-04-11T06:08:32.366Z,64.37
2019-04-11T06:09:35.980Z,64.14
2019-04-11T06:10:31.862Z,63.20
2019-04-11T06:11:31.806Z,64.03
2019-04-11T06:12:31.827Z,63.82
2019-04-11T06:13:32.232Z,63.41
2019-04-11T06:14:31.711Z,63.72
2019-04-11T06:15:31.707Z,63.51
2019-04-11T06:16:40.264Z,63.41
2019-04-11T06:17:32.327Z,63.93
2019-04-11T06:18:36.930Z,63.48
2019-04-11T06:19:31.536Z,63.10
2019-04-11T06:20:31.505Z,64.06
2019-04-11T06:21:31.763Z,64.92
2019-04-11T06:22:31.874Z,64.82
2019-04-11T06:23:31.762Z,65.03
2019-04-11T06:24:32.166Z,64.89
2019-04-11T06:25:33.206Z,64.86
2019-04-11T06:26:32.405Z,63.51
2019-04-11T06:27:32.054Z,63.41
2019-04-11T06:28:31.239Z,63.82
2019-04-11T06:29:31.254Z,63.93
2019-04-11T06:30:32.585Z,63.69
2019-04-11T06:31:31.758Z,63.04
2019-04-11T06:32:31.934Z,62.39
2019-04-11T06:33:32.117Z,62.01
2019-04-11T06:34:31.041Z,61.90
2019-04-11T06:35:31.005Z,62.42
2019-04-11T06:36:31.981Z,62.63
2019-04-11T06:37:31.916Z,63.25
2019-04-11T06:38:30.907Z,62.55
2019-04-11T06:39:31.471Z,63.38
2019-04-11T06:40:30.838Z,63.17
2019-04-11T06:41:30.837Z,62.87
2019-04-11T06:42:31.844Z,62.97
2019-04-11T06:43:30.739Z,62.97
2019-04-11T06:44:30.714Z,62.29
2019-04-11T06:45:31.429Z,62.60
2019-04-11T06:46:31.375Z,61.67
2019-04-11T06:47:30.631Z,61.64
2019-04-11T06:48:31.678Z,61.22
2019-04-11T06:49:30.784Z,60.42
2019-04-11T06:50:31.286Z,61.18
2019-04-11T06:51:30.482Z,62.04
2019-04-11T06:52:30.679Z,62.04
2019-04-11T06:53:30.421Z,61.93
2019-04-11T06:54:30.749Z,62.14
2019-04-11T06:55:30.821Z,62.68
2019-04-11T06:56:30.313Z,62.14
2019-04-11T06:57:30.316Z,62.37
2019-04-11T06:58:30.242Z,61.96
2019-04-11T06:59:30.224Z,61.65
2019-04-11T07:00:31.423Z,61.86
2019-04-11T07:01:30.182Z,61.62
2019-04-11T07:02:30.145Z,61.76
2019-04-11T07:03:30.833Z,61.41
2019-04-11T07:04:30.379Z,61.96
2019-04-11T07:05:30.892Z,62.35
2019-04-11T07:06:29.976Z,62.55
2019-04-11T07:07:31.989Z,62.76
2019-04-11T07:08:30.083Z,62.11
2019-04-11T07:09:30.977Z,62.24
2019-04-11T07:10:30.670Z,61.72
2019-04-11T07:11:29.861Z,62.04
2019-04-11T07:12:30.780Z,61.83
2019-04-11T07:13:30.500Z,61.69
2019-04-11T07:14:29.707Z,61.93
2019-04-11T07:15:29.676Z,61.93
2019-04-11T07:16:29.701Z,62.42
2019-04-11T07:17:29.742Z,61.90
2019-04-11T07:18:29.624Z,62.21
2019-04-11T07:19:30.691Z,61.49
2019-04-11T07:20:29.513Z,61.25
2019-04-11T07:21:29.473Z,60.46
2019-04-11T07:22:30.520Z,60.25
2019-04-11T07:23:30.692Z,59.63
2019-04-11T07:24:30.369Z,59.52
2019-04-11T07:25:29.339Z,59.42
2019-04-11T07:26:29.516Z,59.11
2019-04-11T07:27:29.278Z,58.80
2019-04-11T07:28:29.486Z,58.77
2019-04-11T07:29:29.271Z,58.48
2019-04-11T07:30:31.057Z,58.67
2019-04-11T07:31:30.020Z,58.67
2019-04-11T07:32:29.862Z,58.46
2019-04-11T07:33:29.087Z,58.25
2019-04-11T07:34:32.719Z,58.95
2019-04-11T07:35:29.333Z,56.81
2019-04-11T07:36:29.561Z,57.29
2019-04-11T07:37:30.110Z,57.22
2019-04-11T07:38:29.412Z,57.63
2019-04-11T07:39:28.972Z,57.63
2019-04-11T07:40:30.852Z,57.01
2019-04-11T07:41:29.743Z,56.70
2019-04-11T07:42:30.785Z,56.70
2019-04-11T07:43:29.185Z,56.18
2019-04-11T07:44:30.403Z,55.74
2019-04-11T07:45:29.705Z,55.87
2019-04-11T07:46:28.941Z,55.56
2019-04-11T07:47:29.485Z,56.49
2019-04-11T07:48:29.231Z,55.56
2019-04-11T07:49:28.625Z,55.66
2019-04-11T07:50:28.495Z,56.91
2019-04-11T07:51:28.544Z,57.12
2019-04-11T07:52:31.365Z,56.81
2019-04-11T07:53:28.611Z,56.98
2019-04-11T07:54:28.387Z,57.19
2019-04-11T07:55:28.326Z,55.05
2019-04-11T07:56:29.425Z,55.64
2019-04-11T07:57:28.488Z,55.64
2019-04-11T07:58:28.617Z,55.02
2019-04-11T07:59:29.454Z,55.12
2019-04-11T08:00:39.890Z,54.50
2019-04-11T08:01:29.379Z,55.12
2019-04-11T08:02:29.033Z,54.61
2019-04-11T08:03:28.060Z,54.79
2019-04-11T08:04:28.050Z,54.27
2019-04-11T08:05:28.076Z,54.89
2019-04-11T08:06:28.823Z,53.34
2019-04-11T08:07:28.180Z,53.47
2019-04-11T08:08:27.894Z,53.26
2019-04-11T08:09:28.900Z,54.19
2019-04-11T08:10:27.826Z,53.55
2019-04-11T08:11:27.795Z,53.34
2019-04-11T08:12:27.765Z,52.80
2019-04-11T08:13:28.333Z,51.97
2019-04-11T08:14:28.663Z,51.45
2019-04-11T08:15:27.658Z,51.87
2019-04-11T08:16:28.858Z,51.97
2019-04-11T08:17:36.504Z,51.95
2019-04-11T08:18:28.453Z,51.45
2019-04-11T08:19:28.807Z,50.81
2019-04-11T08:20:27.527Z,50.09
2019-04-11T08:21:28.289Z,51.04
2019-04-11T08:22:27.438Z,51.68
2019-04-11T08:23:27.793Z,51.79
2019-04-11T08:24:29.654Z,52.00
2019-04-11T08:25:27.350Z,51.28
2019-04-11T08:26:28.285Z,52.31
2019-04-11T08:27:27.512Z,52.00
2019-04-11T08:28:27.227Z,51.79
2019-04-11T08:29:28.508Z,51.89
2019-04-11T08:30:27.184Z,51.89
2019-04-11T08:31:27.136Z,51.87
2019-04-11T08:32:27.509Z,51.45
2019-04-11T08:33:27.060Z,51.33
2019-04-11T08:34:27.109Z,51.33
2019-04-11T08:35:28.233Z,50.50
2019-04-11T08:36:26.965Z,48.00
2019-04-11T08:37:27.593Z,47.30
2019-04-11T08:38:26.894Z,47.59
2019-04-11T08:39:26.969Z,46.82
2019-04-11T08:40:27.902Z,47.21
2019-04-11T08:41:27.455Z,45.67
2019-04-11T08:42:27.490Z,46.19
2019-04-11T08:43:26.959Z,45.03
2019-04-11T08:44:27.941Z,45.87
2019-04-11T08:45:26.671Z,45.79
2019-04-11T08:46:26.832Z,45.69
2019-04-11T08:47:40.142Z,45.79
2019-04-11T08:48:26.673Z,45.89
2019-04-11T08:49:29.017Z,45.59
2019-04-11T08:50:26.508Z,46.10
2019-04-11T08:51:27.444Z,45.87
2019-04-11T08:52:26.450Z,44.96
2019-04-11T08:53:26.827Z,45.36
2019-04-11T08:54:26.389Z,45.03
2019-04-11T08:55:27.347Z,43.90
2019-04-11T08:56:27.960Z,43.90
2019-04-11T08:57:27.517Z,43.46
2019-04-11T08:58:26.735Z,43.79
2019-04-11T08:59:27.127Z,43.59
2019-04-11T09:00:26.332Z,43.99
2019-04-11T09:01:26.203Z,43.90
2019-04-11T09:02:26.908Z,43.90
2019-04-11T09:03:26.109Z,44.51
2019-04-11T09:04:26.104Z,42.12
2019-04-11T09:05:27.031Z,42.41
2019-04-11T09:06:26.538Z,42.37
2019-04-11T09:07:25.981Z,42.79
2019-04-11T09:08:26.798Z,42.27
2019-04-11T09:09:27.128Z,42.07
2019-04-11T09:10:26.175Z,42.40
2019-04-11T09:11:25.879Z,41.61
2019-04-11T09:12:26.805Z,41.92
2019-04-11T09:13:27.069Z,42.55
2019-04-11T09:14:26.404Z,43.59
2019-04-11T09:15:26.639Z,42.64
2019-04-11T09:16:25.822Z,42.54
2019-04-11T09:17:26.150Z,41.92
2019-04-11T09:18:25.997Z,42.85
2019-04-11T09:19:25.609Z,42.35
2019-04-11T09:20:25.580Z,43.48
2019-04-11T09:21:26.520Z,43.17
2019-04-11T09:22:33.252Z,42.86
2019-04-11T09:23:25.916Z,43.46
2019-04-11T09:24:26.319Z,43.34
2019-04-11T09:25:25.424Z,43.15
2019-04-11T09:26:25.685Z,43.67
2019-04-11T09:27:26.742Z,43.24
2019-04-11T09:28:25.343Z,42.49
2019-04-11T09:29:26.184Z,43.12
2019-04-11T09:30:25.269Z,42.40
2019-04-11T09:31:25.512Z,42.49
2019-04-11T09:32:26.511Z,42.46
2019-04-11T09:33:25.174Z,41.93
2019-04-11T09:34:25.916Z,41.82
2019-04-11T09:35:25.122Z,41.94
2019-04-11T09:36:26.037Z,42.66
2019-04-11T09:37:25.355Z,42.35
2019-04-11T09:38:25.042Z,41.94
2019-04-11T09:39:24.992Z,41.53
2019-04-11T09:40:26.302Z,41.31
2019-04-11T09:41:24.964Z,41.41
2019-04-11T09:42:26.136Z,41.31
2019-04-11T09:43:26.179Z,41.28
2019-04-11T09:44:24.952Z,40.48
2019-04-11T09:45:25.721Z,41.00
2019-04-11T09:46:26.112Z,40.57
2019-04-11T09:47:24.751Z,39.56
2019-04-11T09:48:26.052Z,39.66
2019-04-11T09:49:24.837Z,40.30
2019-04-11T09:50:24.672Z,39.97
2019-04-11T09:51:26.448Z,40.61
2019-04-11T09:52:24.845Z,41.33
2019-04-11T09:53:26.115Z,41.65
2019-04-11T09:54:24.546Z,41.35
2019-04-11T09:55:25.512Z,42.17
2019-04-11T09:56:24.485Z,41.47
2019-04-11T09:57:24.859Z,41.47
2019-04-11T09:58:25.325Z,40.83
2019-04-11T09:59:25.027Z,40.85
2019-04-11T10:00:24.365Z,40.71
2019-04-11T10:01:24.593Z,41.65
2019-04-11T10:02:25.347Z,40.52
2019-04-11T10:03:25.483Z,41.47
2019-04-11T10:04:25.531Z,40.75
2019-04-11T10:05:24.462Z,41.26
2019-04-11T10:06:24.200Z,41.16
2019-04-11T10:07:24.154Z,41.16
2019-04-11T10:08:24.619Z,41.36
2019-04-11T10:09:24.108Z,40.30
2019-04-11T10:10:24.650Z,40.28
2019-04-11T10:11:24.152Z,39.66
2019-04-11T10:12:24.179Z,39.76
2019-04-11T10:13:24.964Z,39.66
2019-04-11T10:14:23.995Z,38.10
2019-04-11T10:15:24.053Z,38.04
2019-04-11T10:16:24.199Z,38.98
2019-04-11T10:17:26.370Z,38.67
2019-04-11T10:18:27.757Z,39.70
2019-04-11T10:19:24.327Z,39.90
2019-04-11T10:20:24.485Z,40.81
2019-04-11T10:21:24.652Z,39.58
2019-04-11T10:22:23.749Z,38.64
2019-04-11T10:23:24.899Z,38.72
2019-04-11T10:24:24.245Z,38.00
2019-04-11T10:25:23.623Z,37.77
2019-04-11T10:26:23.616Z,36.32
2019-04-11T10:27:24.653Z,35.93
2019-04-11T10:28:23.534Z,36.22
2019-04-11T10:29:23.662Z,34.90
2019-04-11T10:30:24.038Z,35.52
2019-04-11T10:31:23.438Z,35.50
2019-04-11T10:32:23.410Z,36.41
2019-04-11T10:33:24.658Z,35.60
2019-04-11T10:34:24.048Z,35.72
2019-04-11T10:35:24.069Z,35.21
2019-04-11T10:36:23.293Z,35.62
2019-04-11T10:37:23.472Z,35.31
2019-04-11T10:38:24.322Z,35.52
2019-04-11T10:39:23.223Z,35.91
2019-04-11T10:40:24.035Z,34.36
2019-04-11T10:41:23.146Z,34.55
2019-04-11T10:42:23.181Z,34.56
2019-04-11T10:43:23.089Z,35.19
2019-04-11T10:44:23.526Z,36.02
2019-04-11T10:45:23.142Z,36.24
2019-04-11T10:46:23.041Z,36.55
2019-04-11T10:47:23.011Z,36.24
2019-04-11T10:48:32.606Z,36.24
2019-04-11T10:49:22.971Z,36.13
2019-04-11T10:50:23.711Z,35.62
2019-04-11T10:51:22.857Z,35.62
2019-04-11T10:52:24.785Z,36.02
2019-04-11T10:53:24.818Z,35.52
2019-04-11T10:54:23.867Z,35.42
2019-04-11T10:55:22.774Z,35.52
2019-04-11T10:56:22.721Z,36.25
2019-04-11T10:57:22.700Z,36.55
2019-04-11T10:58:22.687Z,35.93
2019-04-11T10:59:25.225Z,35.60
2019-04-11T11:00:22.988Z,36.03
2019-04-11T11:01:22.571Z,35.40
2019-04-11T11:02:23.013Z,34.77
2019-04-11T11:03:22.514Z,34.15
2019-04-11T11:04:23.437Z,34.27
2019-04-11T11:05:22.482Z,35.40
2019-04-11T11:06:22.484Z,34.89
2019-04-11T11:07:22.446Z,34.58
2019-04-11T11:08:23.520Z,34.59
2019-04-11T11:09:22.344Z,35.50
2019-04-11T11:10:22.352Z,34.36
2019-04-11T11:11:22.289Z,35.21
2019-04-11T11:12:23.173Z,35.64
2019-04-11T11:13:22.226Z,36.03
2019-04-11T11:14:22.781Z,35.00
2019-04-11T11:15:23.271Z,35.42
2019-04-11T11:16:22.344Z,35.19
2019-04-11T11:17:43.243Z,35.06
2019-04-11T11:19:40.939Z,34.44
2019-04-11T11:20:28.443Z,35.50
2019-04-11T11:21:25.963Z,36.12
2019-04-11T11:22:23.736Z,36.43
2019-04-11T11:23:21.937Z,36.13
2019-04-11T11:24:21.923Z,36.66
2019-04-11T11:25:22.451Z,37.18
2019-04-11T11:26:24.231Z,36.55
2019-04-11T11:27:22.309Z,36.77
2019-04-11T11:28:21.794Z,36.46
2019-04-11T11:29:22.028Z,36.25
2019-04-11T11:30:22.881Z,37.40
2019-04-11T11:31:22.398Z,37.52
2019-04-11T11:32:22.059Z,37.73
2019-04-11T11:33:22.379Z,36.63
2019-04-11T11:34:23.155Z,37.62
2019-04-11T11:35:39.034Z,37.73
2019-04-11T11:36:21.619Z,36.99
2019-04-11T11:37:22.766Z,36.37
2019-04-11T11:38:21.954Z,35.64
2019-04-11T11:39:22.510Z,36.05
2019-04-11T11:40:22.162Z,35.53
2019-04-11T11:41:22.317Z,35.52
2019-04-11T11:42:22.150Z,35.52
2019-04-11T11:43:21.358Z,35.62
2019-04-11T11:44:22.378Z,35.11
2019-04-11T11:45:21.508Z,34.05
2019-04-11T11:46:25.704Z,34.25
2019-04-11T11:47:21.263Z,34.55
2019-04-11T11:48:23.085Z,34.12
2019-04-11T11:49:37.501Z,33.81
2019-04-11T11:50:23.297Z,33.01
2019-04-11T11:51:24.620Z,33.42
2019-04-11T11:52:21.112Z,33.31
2019-04-11T11:53:21.060Z,33.81
2019-04-11T11:54:21.907Z,33.30
2019-04-11T11:55:21.916Z,33.83
2019-04-11T11:56:22.006Z,33.71
2019-04-11T11:57:20.973Z,33.42
2019-04-11T11:58:21.606Z,34.24
2019-04-11T11:59:20.889Z,34.97
2019-04-11T12:00:21.218Z,34.70
2019-04-11T12:01:21.857Z,35.00
2019-04-11T12:02:21.531Z,35.30
2019-04-11T12:03:23.439Z,34.39
2019-04-11T12:04:23.944Z,35.30
2019-04-11T12:05:20.723Z,35.40
2019-04-11T12:06:22.236Z,34.36
2019-04-11T12:07:21.056Z,34.15
2019-04-11T12:08:20.673Z,36.13
2019-04-11T12:09:20.788Z,35.74
2019-04-11T12:10:22.469Z,35.72
2019-04-11T12:11:20.543Z,35.42
2019-04-11T12:12:21.827Z,37.19
2019-04-11T12:13:20.487Z,37.37
2019-04-11T12:14:20.459Z,36.85
2019-04-11T12:15:22.413Z,36.73
2019-04-11T12:16:21.897Z,36.21
2019-04-11T12:17:20.857Z,35.83
2019-04-11T12:18:21.601Z,36.85
2019-04-11T12:19:22.115Z,36.34
2019-04-11T12:20:20.852Z,36.46
2019-04-11T12:21:24.377Z,37.81
2019-04-11T12:22:20.249Z,38.12
2019-04-11T12:23:20.195Z,37.19
2019-04-11T12:24:20.173Z,36.96
2019-04-11T12:25:20.854Z,36.03
2019-04-11T12:26:20.331Z,36.36
2019-04-11T12:27:20.527Z,36.96
2019-04-11T12:28:20.059Z,36.85
2019-04-11T12:29:20.032Z,38.10
2019-04-11T12:30:23.505Z,37.30
2019-04-11T12:31:19.967Z,37.90
2019-04-11T12:32:20.118Z,37.38
2019-04-11T12:33:19.940Z,37.90
2019-04-11T12:34:19.883Z,38.64
2019-04-11T12:35:19.991Z,38.51
2019-04-11T12:36:20.996Z,38.51
2019-04-11T12:37:21.123Z,37.59
2019-04-11T12:38:20.390Z,37.86
2019-04-11T12:39:19.744Z,38.70
2019-04-11T12:40:19.706Z,37.98
2019-04-11T12:41:20.199Z,38.09
2019-04-11T12:42:19.661Z,38.09
2019-04-11T12:43:25.575Z,38.62
2019-04-11T12:44:19.600Z,39.34
2019-04-11T12:45:19.562Z,39.23
2019-04-11T12:46:29.580Z,39.44
2019-04-11T12:47:19.510Z,39.97
2019-04-11T12:48:19.499Z,39.99
2019-04-11T12:49:19.447Z,39.56
2019-04-11T12:50:20.449Z,39.68
2019-04-11T12:51:19.384Z,39.75
2019-04-11T12:52:19.358Z,39.64
2019-04-11T12:53:28.254Z,39.95
2019-04-11T12:54:19.298Z,39.54
2019-04-11T12:55:19.271Z,39.75
2019-04-11T12:56:22.407Z,40.05
2019-04-11T12:57:19.211Z,40.17